sensor_id;sensor_type;location;lat;lon;timestamp;P1;durP1;ratioP1;P2;durP2;ratioP2
4424;SDS011;2225;53.568;13.266;2024-01-15T00:00:28;7.10;;;4.13;;
4424;SDS011;2225;53.568;13.266;2024-01-15T00:02:55;5.80;;;3.90;;
4424;SDS011;2225;53.568;13.266;2024-01-15T00:05:23;8.90;;;4.63;;
4424;SDS011;2225;53.568;13.266;2024-01-15T00:07:50;8.23;;;4.47;;
4424;SDS011;2225;53.568;13.266;2024-01-15T00:10:17;6.13;;;3.27;;
4424;SDS011;2225;53.568;13.266;2024-01-15T00:12:44;6.97;;;3.40;;
4424;SDS011;2225;53.568;13.266;2024-01-15T00:15:11;7.33;;;3.40;;
4424;SDS011;2225;53.568;13.266;2024-01-15T00:17:38;6.13;;;3.23;;
4424;SDS011;2225;53.568;13.266;2024-01-15T00:20:05;4.47;;;2.70;;
4424;SDS011;2225;53.568;13.266;2024-01-15T00:22:33;7.77;;;3.30;;
4424;SDS011;2225;53.568;13.266;2024-01-15T00:25:02;7.70;;;2.57;;
4424;SDS011;2225;53.568;13.266;2024-01-15T00:27:29;5.73;;;2.33;;
4424;SDS011;2225;53.568;13.266;2024-01-15T00:29:56;8.60;;;2.93;;
4424;SDS011;2225;53.568;13.266;2024-01-15T00:32:23;5.93;;;2.50;;
4424;SDS011;2225;53.568;13.266;2024-01-15T00:34:50;4.93;;;2.20;;
4424;SDS011;2225;53.568;13.266;2024-01-15T00:37:18;9.73;;;2.10;;
4424;SDS011;2225;53.568;13.266;2024-01-15T00:39:45;7.73;;;2.23;;
4424;SDS011;2225;53.568;13.266;2024-01-15T00:42:12;7.03;;;2.00;;
4424;SDS011;2225;53.568;13.266;2024-01-15T00:44:39;6.37;;;1.93;;
4424;SDS011;2225;53.568;13.266;2024-01-15T00:47:06;6.47;;;1.97;;
4424;SDS011;2225;53.568;13.266;2024-01-15T00:49:33;10.50;;;2.53;;
4424;SDS011;2225;53.568;13.266;2024-01-15T00:52:00;8.77;;;2.43;;
4424;SDS011;2225;53.568;13.266;2024-01-15T00:54:27;6.43;;;2.23;;
4424;SDS011;2225;53.568;13.266;2024-01-15T00:56:53;8.27;;;2.10;;
4424;SDS011;2225;53.568;13.266;2024-01-15T00:59:21;12.37;;;1.90;;
4424;SDS011;2225;53.568;13.266;2024-01-15T01:01:48;6.40;;;1.80;;
4424;SDS011;2225;53.568;13.266;2024-01-15T01:04:15;5.43;;;1.90;;
4424;SDS011;2225;53.568;13.266;2024-01-15T01:06:42;8.20;;;2.00;;
4424;SDS011;2225;53.568;13.266;2024-01-15T01:09:09;11.70;;;1.70;;
4424;SDS011;2225;53.568;13.266;2024-01-15T01:11:36;9.43;;;2.27;;
4424;SDS011;2225;53.568;13.266;2024-01-15T01:14:03;7.13;;;2.43;;
4424;SDS011;2225;53.568;13.266;2024-01-15T01:16:30;17.00;;;3.03;;
4424;SDS011;2225;53.568;13.266;2024-01-15T01:18:57;6.97;;;2.20;;
4424;SDS011;2225;53.568;13.266;2024-01-15T01:21:24;12.93;;;2.27;;
4424;SDS011;2225;53.568;13.266;2024-01-15T01:23:52;7.80;;;1.87;;
4424;SDS011;2225;53.568;13.266;2024-01-15T01:26:19;6.40;;;1.50;;
4424;SDS011;2225;53.568;13.266;2024-01-15T01:28:45;9.63;;;1.57;;
4424;SDS011;2225;53.568;13.266;2024-01-15T01:31:12;9.27;;;2.27;;
4424;SDS011;2225;53.568;13.266;2024-01-15T01:33:39;4.67;;;1.47;;
4424;SDS011;2225;53.568;13.266;2024-01-15T01:36:08;9.10;;;1.30;;
4424;SDS011;2225;53.568;13.266;2024-01-15T01:38:36;8.10;;;1.67;;
4424;SDS011;2225;53.568;13.266;2024-01-15T01:41:03;8.93;;;1.93;;
4424;SDS011;2225;53.568;13.266;2024-01-15T01:43:30;10.53;;;1.40;;
4424;SDS011;2225;53.568;13.266;2024-01-15T01:45:57;6.87;;;1.50;;
4424;SDS011;2225;53.568;13.266;2024-01-15T01:48:26;11.90;;;2.17;;
4424;SDS011;2225;53.568;13.266;2024-01-15T01:50:54;4.43;;;1.20;;
4424;SDS011;2225;53.568;13.266;2024-01-15T01:53:26;16.93;;;2.47;;
4424;SDS011;2225;53.568;13.266;2024-01-15T01:55:54;4.90;;;1.73;;
4424;SDS011;2225;53.568;13.266;2024-01-15T01:58:22;12.10;;;1.90;;
4424;SDS011;2225;53.568;13.266;2024-01-15T02:00:49;8.27;;;2.00;;
4424;SDS011;2225;53.568;13.266;2024-01-15T02:03:16;8.13;;;1.60;;
4424;SDS011;2225;53.568;13.266;2024-01-15T02:05:43;8.13;;;1.67;;
4424;SDS011;2225;53.568;13.266;2024-01-15T02:08:11;9.63;;;1.97;;
4424;SDS011;2225;53.568;13.266;2024-01-15T02:10:38;9.70;;;2.20;;
4424;SDS011;2225;53.568;13.266;2024-01-15T02:13:05;11.47;;;2.20;;
4424;SDS011;2225;53.568;13.266;2024-01-15T02:15:32;9.37;;;1.97;;
4424;SDS011;2225;53.568;13.266;2024-01-15T02:18:05;6.43;;;1.50;;
4424;SDS011;2225;53.568;13.266;2024-01-15T02:20:36;9.13;;;1.90;;
4424;SDS011;2225;53.568;13.266;2024-01-15T02:25:44;10.07;;;2.13;;
4424;SDS011;2225;53.568;13.266;2024-01-15T02:28:13;11.90;;;1.70;;
4424;SDS011;2225;53.568;13.266;2024-01-15T02:30:43;10.13;;;2.17;;
4424;SDS011;2225;53.568;13.266;2024-01-15T02:33:11;10.83;;;1.83;;
4424;SDS011;2225;53.568;13.266;2024-01-15T02:35:39;14.30;;;1.90;;
4424;SDS011;2225;53.568;13.266;2024-01-15T02:38:06;20.30;;;1.80;;
4424;SDS011;2225;53.568;13.266;2024-01-15T02:40:34;14.97;;;1.93;;
4424;SDS011;2225;53.568;13.266;2024-01-15T02:43:02;6.97;;;1.63;;
4424;SDS011;2225;53.568;13.266;2024-01-15T02:45:29;12.13;;;2.07;;
4424;SDS011;2225;53.568;13.266;2024-01-15T02:47:56;16.23;;;2.30;;
4424;SDS011;2225;53.568;13.266;2024-01-15T02:50:23;10.60;;;2.30;;
4424;SDS011;2225;53.568;13.266;2024-01-15T02:52:50;10.63;;;2.10;;
4424;SDS011;2225;53.568;13.266;2024-01-15T02:55:17;11.10;;;1.70;;
4424;SDS011;2225;53.568;13.266;2024-01-15T02:57:44;12.17;;;3.00;;
4424;SDS011;2225;53.568;13.266;2024-01-15T03:00:11;7.43;;;2.10;;
4424;SDS011;2225;53.568;13.266;2024-01-15T03:02:40;6.47;;;1.57;;
4424;SDS011;2225;53.568;13.266;2024-01-15T03:05:13;9.53;;;2.13;;
4424;SDS011;2225;53.568;13.266;2024-01-15T03:07:40;4.50;;;1.53;;
4424;SDS011;2225;53.568;13.266;2024-01-15T03:10:07;13.60;;;2.40;;
4424;SDS011;2225;53.568;13.266;2024-01-15T03:12:35;9.10;;;1.57;;
4424;SDS011;2225;53.568;13.266;2024-01-15T03:15:02;11.50;;;2.33;;
4424;SDS011;2225;53.568;13.266;2024-01-15T03:17:29;15.33;;;2.37;;
4424;SDS011;2225;53.568;13.266;2024-01-15T03:19:56;9.40;;;2.27;;
4424;SDS011;2225;53.568;13.266;2024-01-15T03:22:23;13.93;;;2.07;;
4424;SDS011;2225;53.568;13.266;2024-01-15T03:24:52;7.40;;;1.50;;
4424;SDS011;2225;53.568;13.266;2024-01-15T03:27:19;12.57;;;1.90;;
4424;SDS011;2225;53.568;13.266;2024-01-15T03:29:46;12.70;;;2.27;;
4424;SDS011;2225;53.568;13.266;2024-01-15T03:32:13;16.83;;;1.70;;
4424;SDS011;2225;53.568;13.266;2024-01-15T03:34:42;9.87;;;1.67;;
4424;SDS011;2225;53.568;13.266;2024-01-15T03:37:09;15.83;;;2.90;;
4424;SDS011;2225;53.568;13.266;2024-01-15T03:39:36;6.37;;;1.77;;
4424;SDS011;2225;53.568;13.266;2024-01-15T03:42:03;9.97;;;1.90;;
4424;SDS011;2225;53.568;13.266;2024-01-15T03:44:30;6.80;;;1.87;;
4424;SDS011;2225;53.568;13.266;2024-01-15T03:46:57;4.40;;;1.40;;
4424;SDS011;2225;53.568;13.266;2024-01-15T03:49:25;6.00;;;1.50;;
4424;SDS011;2225;53.568;13.266;2024-01-15T03:51:52;5.23;;;1.70;;
4424;SDS011;2225;53.568;13.266;2024-01-15T03:54:19;6.07;;;1.43;;
4424;SDS011;2225;53.568;13.266;2024-01-15T03:56:46;8.00;;;1.90;;
4424;SDS011;2225;53.568;13.266;2024-01-15T03:59:13;11.77;;;1.57;;
4424;SDS011;2225;53.568;13.266;2024-01-15T04:01:40;8.07;;;1.93;;
4424;SDS011;2225;53.568;13.266;2024-01-15T04:04:07;7.27;;;1.53;;
4424;SDS011;2225;53.568;13.266;2024-01-15T04:06:34;9.00;;;2.47;;
4424;SDS011;2225;53.568;13.266;2024-01-15T04:09:01;9.60;;;1.80;;
4424;SDS011;2225;53.568;13.266;2024-01-15T04:11:29;16.83;;;2.40;;
4424;SDS011;2225;53.568;13.266;2024-01-15T04:13:55;16.13;;;3.27;;
4424;SDS011;2225;53.568;13.266;2024-01-15T04:16:22;9.83;;;1.93;;
4424;SDS011;2225;53.568;13.266;2024-01-15T04:18:49;6.70;;;1.90;;
4424;SDS011;2225;53.568;13.266;2024-01-15T04:21:17;7.90;;;1.83;;
4424;SDS011;2225;53.568;13.266;2024-01-15T04:23:44;15.83;;;2.80;;
4424;SDS011;2225;53.568;13.266;2024-01-15T04:26:11;11.50;;;1.83;;
4424;SDS011;2225;53.568;13.266;2024-01-15T04:28:38;9.53;;;1.80;;
4424;SDS011;2225;53.568;13.266;2024-01-15T04:31:05;12.20;;;2.20;;
4424;SDS011;2225;53.568;13.266;2024-01-15T04:33:32;25.57;;;2.53;;
4424;SDS011;2225;53.568;13.266;2024-01-15T04:36:03;17.77;;;2.70;;
4424;SDS011;2225;53.568;13.266;2024-01-15T04:38:31;11.73;;;1.77;;
4424;SDS011;2225;53.568;13.266;2024-01-15T04:40:59;15.57;;;2.20;;
4424;SDS011;2225;53.568;13.266;2024-01-15T04:43:26;12.13;;;2.43;;
4424;SDS011;2225;53.568;13.266;2024-01-15T04:45:53;9.77;;;2.27;;
4424;SDS011;2225;53.568;13.266;2024-01-15T04:48:20;9.23;;;2.43;;
4424;SDS011;2225;53.568;13.266;2024-01-15T04:50:49;10.80;;;2.00;;
4424;SDS011;2225;53.568;13.266;2024-01-15T04:53:17;13.80;;;2.23;;
4424;SDS011;2225;53.568;13.266;2024-01-15T04:55:43;18.40;;;1.80;;
4424;SDS011;2225;53.568;13.266;2024-01-15T04:58:10;14.63;;;2.70;;
4424;SDS011;2225;53.568;13.266;2024-01-15T05:00:38;7.23;;;2.00;;
4424;SDS011;2225;53.568;13.266;2024-01-15T05:03:05;14.00;;;2.53;;
4424;SDS011;2225;53.568;13.266;2024-01-15T05:05:32;11.83;;;2.00;;
4424;SDS011;2225;53.568;13.266;2024-01-15T05:07:59;11.07;;;2.33;;
4424;SDS011;2225;53.568;13.266;2024-01-15T05:10:26;11.80;;;2.07;;
4424;SDS011;2225;53.568;13.266;2024-01-15T05:12:53;15.30;;;2.17;;
4424;SDS011;2225;53.568;13.266;2024-01-15T05:15:20;25.23;;;2.10;;
4424;SDS011;2225;53.568;13.266;2024-01-15T05:17:47;10.60;;;2.40;;
4424;SDS011;2225;53.568;13.266;2024-01-15T05:20:14;15.23;;;2.33;;
4424;SDS011;2225;53.568;13.266;2024-01-15T05:22:41;11.47;;;2.37;;
4424;SDS011;2225;53.568;13.266;2024-01-15T05:25:08;12.30;;;2.03;;
4424;SDS011;2225;53.568;13.266;2024-01-15T05:27:35;19.33;;;2.10;;
4424;SDS011;2225;53.568;13.266;2024-01-15T05:30:02;7.50;;;1.67;;
4424;SDS011;2225;53.568;13.266;2024-01-15T05:32:30;10.73;;;2.37;;
4424;SDS011;2225;53.568;13.266;2024-01-15T05:34:58;10.30;;;1.87;;
4424;SDS011;2225;53.568;13.266;2024-01-15T05:37:25;9.10;;;2.00;;
4424;SDS011;2225;53.568;13.266;2024-01-15T05:39:52;7.17;;;1.60;;
4424;SDS011;2225;53.568;13.266;2024-01-15T05:42:19;18.70;;;2.17;;
4424;SDS011;2225;53.568;13.266;2024-01-15T05:44:46;7.97;;;1.70;;
4424;SDS011;2225;53.568;13.266;2024-01-15T05:47:13;15.03;;;1.60;;
4424;SDS011;2225;53.568;13.266;2024-01-15T05:49:40;3.57;;;1.20;;
4424;SDS011;2225;53.568;13.266;2024-01-15T05:52:07;8.20;;;2.20;;
4424;SDS011;2225;53.568;13.266;2024-01-15T05:54:34;6.93;;;2.23;;
4424;SDS011;2225;53.568;13.266;2024-01-15T05:57:01;5.07;;;1.20;;
4424;SDS011;2225;53.568;13.266;2024-01-15T05:59:28;8.70;;;1.80;;
4424;SDS011;2225;53.568;13.266;2024-01-15T06:01:58;6.60;;;1.13;;
4424;SDS011;2225;53.568;13.266;2024-01-15T06:04:25;10.60;;;1.67;;
4424;SDS011;2225;53.568;13.266;2024-01-15T06:06:52;13.20;;;1.93;;
4424;SDS011;2225;53.568;13.266;2024-01-15T06:09:19;7.67;;;2.03;;
4424;SDS011;2225;53.568;13.266;2024-01-15T06:11:45;8.90;;;1.77;;
4424;SDS011;2225;53.568;13.266;2024-01-15T06:14:12;6.80;;;1.83;;
4424;SDS011;2225;53.568;13.266;2024-01-15T06:16:39;9.43;;;2.30;;
4424;SDS011;2225;53.568;13.266;2024-01-15T06:19:06;20.57;;;2.33;;
4424;SDS011;2225;53.568;13.266;2024-01-15T06:21:34;5.63;;;1.47;;
4424;SDS011;2225;53.568;13.266;2024-01-15T06:24:01;13.60;;;2.20;;
4424;SDS011;2225;53.568;13.266;2024-01-15T06:26:28;18.50;;;2.90;;
4424;SDS011;2225;53.568;13.266;2024-01-15T06:28:55;9.67;;;1.97;;
4424;SDS011;2225;53.568;13.266;2024-01-15T06:31:22;4.00;;;1.47;;
4424;SDS011;2225;53.568;13.266;2024-01-15T06:33:49;8.50;;;1.30;;
4424;SDS011;2225;53.568;13.266;2024-01-15T06:36:16;12.90;;;1.90;;
4424;SDS011;2225;53.568;13.266;2024-01-15T06:38:43;12.20;;;1.60;;
4424;SDS011;2225;53.568;13.266;2024-01-15T06:41:10;6.87;;;2.00;;
4424;SDS011;2225;53.568;13.266;2024-01-15T06:43:37;15.63;;;1.67;;
4424;SDS011;2225;53.568;13.266;2024-01-15T06:46:04;14.20;;;1.80;;
4424;SDS011;2225;53.568;13.266;2024-01-15T06:48:33;8.63;;;1.60;;
4424;SDS011;2225;53.568;13.266;2024-01-15T06:51:01;10.40;;;1.93;;
4424;SDS011;2225;53.568;13.266;2024-01-15T06:53:28;10.73;;;1.83;;
4424;SDS011;2225;53.568;13.266;2024-01-15T06:55:55;7.80;;;1.40;;
4424;SDS011;2225;53.568;13.266;2024-01-15T06:58:22;13.90;;;2.43;;
4424;SDS011;2225;53.568;13.266;2024-01-15T07:00:48;16.40;;;1.97;;
4424;SDS011;2225;53.568;13.266;2024-01-15T07:03:16;13.77;;;1.50;;
4424;SDS011;2225;53.568;13.266;2024-01-15T07:05:43;11.10;;;1.40;;
4424;SDS011;2225;53.568;13.266;2024-01-15T07:08:10;14.13;;;1.60;;
4424;SDS011;2225;53.568;13.266;2024-01-15T07:10:37;9.70;;;2.57;;
4424;SDS011;2225;53.568;13.266;2024-01-15T07:13:03;8.00;;;1.87;;
4424;SDS011;2225;53.568;13.266;2024-01-15T07:15:31;16.30;;;2.80;;
4424;SDS011;2225;53.568;13.266;2024-01-15T07:17:59;8.03;;;1.67;;
4424;SDS011;2225;53.568;13.266;2024-01-15T07:20:26;16.03;;;2.20;;
4424;SDS011;2225;53.568;13.266;2024-01-15T07:22:53;10.13;;;1.67;;
4424;SDS011;2225;53.568;13.266;2024-01-15T07:25:20;11.73;;;2.63;;
4424;SDS011;2225;53.568;13.266;2024-01-15T07:27:47;16.50;;;2.00;;
4424;SDS011;2225;53.568;13.266;2024-01-15T07:30:14;12.53;;;2.87;;
4424;SDS011;2225;53.568;13.266;2024-01-15T07:32:41;21.33;;;2.63;;
4424;SDS011;2225;53.568;13.266;2024-01-15T07:35:08;10.87;;;1.83;;
4424;SDS011;2225;53.568;13.266;2024-01-15T07:37:36;12.17;;;1.70;;
4424;SDS011;2225;53.568;13.266;2024-01-15T07:40:03;10.20;;;1.70;;
4424;SDS011;2225;53.568;13.266;2024-01-15T07:42:33;13.10;;;2.10;;
4424;SDS011;2225;53.568;13.266;2024-01-15T07:45:01;15.00;;;2.00;;
4424;SDS011;2225;53.568;13.266;2024-01-15T07:47:28;16.43;;;2.50;;
4424;SDS011;2225;53.568;13.266;2024-01-15T07:49:55;12.60;;;2.40;;
4424;SDS011;2225;53.568;13.266;2024-01-15T07:52:25;6.00;;;1.57;;
4424;SDS011;2225;53.568;13.266;2024-01-15T07:54:52;15.17;;;1.87;;
4424;SDS011;2225;53.568;13.266;2024-01-15T07:57:19;11.53;;;1.60;;
4424;SDS011;2225;53.568;13.266;2024-01-15T07:59:46;8.87;;;1.50;;
4424;SDS011;2225;53.568;13.266;2024-01-15T08:02:13;15.93;;;1.97;;
4424;SDS011;2225;53.568;13.266;2024-01-15T08:04:40;15.13;;;2.10;;
4424;SDS011;2225;53.568;13.266;2024-01-15T08:07:07;5.93;;;1.10;;
4424;SDS011;2225;53.568;13.266;2024-01-15T08:09:34;10.30;;;1.60;;
4424;SDS011;2225;53.568;13.266;2024-01-15T08:12:01;8.93;;;1.30;;
4424;SDS011;2225;53.568;13.266;2024-01-15T08:14:28;7.73;;;1.20;;
4424;SDS011;2225;53.568;13.266;2024-01-15T08:16:55;7.30;;;1.03;;
4424;SDS011;2225;53.568;13.266;2024-01-15T08:19:22;4.83;;;1.20;;
4424;SDS011;2225;53.568;13.266;2024-01-15T08:21:50;4.37;;;0.97;;
4424;SDS011;2225;53.568;13.266;2024-01-15T08:24:17;7.97;;;1.23;;
4424;SDS011;2225;53.568;13.266;2024-01-15T08:26:44;3.93;;;0.83;;
4424;SDS011;2225;53.568;13.266;2024-01-15T08:29:11;5.03;;;1.10;;
4424;SDS011;2225;53.568;13.266;2024-01-15T08:31:38;14.97;;;1.47;;
4424;SDS011;2225;53.568;13.266;2024-01-15T08:34:06;10.13;;;1.33;;
4424;SDS011;2225;53.568;13.266;2024-01-15T08:36:33;6.23;;;1.17;;
4424;SDS011;2225;53.568;13.266;2024-01-15T08:39:01;7.63;;;1.77;;
4424;SDS011;2225;53.568;13.266;2024-01-15T08:41:33;7.07;;;1.20;;
4424;SDS011;2225;53.568;13.266;2024-01-15T08:44:01;7.47;;;1.03;;
4424;SDS011;2225;53.568;13.266;2024-01-15T08:46:29;8.37;;;1.53;;
4424;SDS011;2225;53.568;13.266;2024-01-15T08:48:56;4.17;;;1.40;;
4424;SDS011;2225;53.568;13.266;2024-01-15T08:51:23;5.90;;;1.33;;
4424;SDS011;2225;53.568;13.266;2024-01-15T08:53:50;7.23;;;1.00;;
4424;SDS011;2225;53.568;13.266;2024-01-15T08:56:17;7.43;;;1.30;;
4424;SDS011;2225;53.568;13.266;2024-01-15T08:58:44;3.77;;;1.10;;
4424;SDS011;2225;53.568;13.266;2024-01-15T09:01:12;5.10;;;1.10;;
4424;SDS011;2225;53.568;13.266;2024-01-15T09:03:39;11.03;;;1.37;;
4424;SDS011;2225;53.568;13.266;2024-01-15T09:06:09;9.33;;;1.90;;
4424;SDS011;2225;53.568;13.266;2024-01-15T09:08:37;10.13;;;1.30;;
4424;SDS011;2225;53.568;13.266;2024-01-15T09:11:04;11.50;;;1.90;;
4424;SDS011;2225;53.568;13.266;2024-01-15T09:13:31;12.63;;;1.50;;
4424;SDS011;2225;53.568;13.266;2024-01-15T09:15:58;11.70;;;1.83;;
4424;SDS011;2225;53.568;13.266;2024-01-15T09:18:26;8.77;;;1.93;;
4424;SDS011;2225;53.568;13.266;2024-01-15T09:20:54;9.57;;;1.83;;
4424;SDS011;2225;53.568;13.266;2024-01-15T09:23:21;12.60;;;1.77;;
4424;SDS011;2225;53.568;13.266;2024-01-15T09:25:48;13.20;;;1.50;;
4424;SDS011;2225;53.568;13.266;2024-01-15T09:28:15;7.90;;;1.97;;
4424;SDS011;2225;53.568;13.266;2024-01-15T09:30:42;9.00;;;1.80;;
4424;SDS011;2225;53.568;13.266;2024-01-15T09:33:11;9.63;;;2.00;;
4424;SDS011;2225;53.568;13.266;2024-01-15T09:35:38;9.13;;;1.57;;
4424;SDS011;2225;53.568;13.266;2024-01-15T09:38:05;5.43;;;1.77;;
4424;SDS011;2225;53.568;13.266;2024-01-15T09:40:32;12.80;;;1.90;;
4424;SDS011;2225;53.568;13.266;2024-01-15T09:43:00;11.60;;;1.50;;
4424;SDS011;2225;53.568;13.266;2024-01-15T09:45:28;15.93;;;1.73;;
4424;SDS011;2225;53.568;13.266;2024-01-15T09:47:55;13.87;;;1.50;;
4424;SDS011;2225;53.568;13.266;2024-01-15T09:50:22;11.70;;;2.13;;
4424;SDS011;2225;53.568;13.266;2024-01-15T09:52:50;7.70;;;1.73;;
4424;SDS011;2225;53.568;13.266;2024-01-15T09:55:17;13.10;;;1.20;;
4424;SDS011;2225;53.568;13.266;2024-01-15T09:57:44;5.63;;;1.20;;
4424;SDS011;2225;53.568;13.266;2024-01-15T10:00:15;8.07;;;1.63;;
4424;SDS011;2225;53.568;13.266;2024-01-15T10:02:44;6.73;;;1.20;;
4424;SDS011;2225;53.568;13.266;2024-01-15T10:05:11;12.80;;;1.80;;
4424;SDS011;2225;53.568;13.266;2024-01-15T10:07:38;8.17;;;1.70;;
4424;SDS011;2225;53.568;13.266;2024-01-15T10:10:06;7.63;;;1.30;;
4424;SDS011;2225;53.568;13.266;2024-01-15T10:12:34;5.00;;;1.30;;
4424;SDS011;2225;53.568;13.266;2024-01-15T10:15:01;5.07;;;1.20;;
4424;SDS011;2225;53.568;13.266;2024-01-15T10:17:28;4.20;;;0.90;;
4424;SDS011;2225;53.568;13.266;2024-01-15T10:19:57;5.17;;;1.33;;
4424;SDS011;2225;53.568;13.266;2024-01-15T10:22:24;9.13;;;2.00;;
4424;SDS011;2225;53.568;13.266;2024-01-15T10:24:52;7.87;;;1.47;;
4424;SDS011;2225;53.568;13.266;2024-01-15T10:27:19;7.63;;;1.20;;
4424;SDS011;2225;53.568;13.266;2024-01-15T10:29:46;7.13;;;1.27;;
4424;SDS011;2225;53.568;13.266;2024-01-15T10:32:13;7.57;;;2.33;;
4424;SDS011;2225;53.568;13.266;2024-01-15T10:34:40;8.40;;;1.00;;
4424;SDS011;2225;53.568;13.266;2024-01-15T10:37:09;5.37;;;1.10;;
4424;SDS011;2225;53.568;13.266;2024-01-15T10:39:36;8.80;;;0.90;;
4424;SDS011;2225;53.568;13.266;2024-01-15T10:42:04;3.60;;;0.97;;
4424;SDS011;2225;53.568;13.266;2024-01-15T10:44:33;5.43;;;1.20;;
4424;SDS011;2225;53.568;13.266;2024-01-15T10:47:01;4.70;;;0.93;;
4424;SDS011;2225;53.568;13.266;2024-01-15T10:49:28;5.20;;;0.90;;
4424;SDS011;2225;53.568;13.266;2024-01-15T10:52:00;6.50;;;2.17;;
4424;SDS011;2225;53.568;13.266;2024-01-15T10:54:29;7.70;;;1.50;;
4424;SDS011;2225;53.568;13.266;2024-01-15T10:56:56;5.37;;;1.10;;
4424;SDS011;2225;53.568;13.266;2024-01-15T10:59:24;5.03;;;1.00;;
4424;SDS011;2225;53.568;13.266;2024-01-15T11:01:51;5.20;;;1.40;;
4424;SDS011;2225;53.568;13.266;2024-01-15T11:04:21;4.90;;;0.83;;
4424;SDS011;2225;53.568;13.266;2024-01-15T11:06:52;6.53;;;1.27;;
4424;SDS011;2225;53.568;13.266;2024-01-15T11:09:22;5.00;;;1.00;;
4424;SDS011;2225;53.568;13.266;2024-01-15T11:11:52;6.77;;;1.73;;
4424;SDS011;2225;53.568;13.266;2024-01-15T11:14:45;6.87;;;1.80;;
4424;SDS011;2225;53.568;13.266;2024-01-15T11:17:14;9.27;;;1.13;;
4424;SDS011;2225;53.568;13.266;2024-01-15T11:19:49;3.00;;;1.33;;
4424;SDS011;2225;53.568;13.266;2024-01-15T11:22:47;5.50;;;1.30;;
4424;SDS011;2225;53.568;13.266;2024-01-15T11:25:15;7.93;;;2.53;;
4424;SDS011;2225;53.568;13.266;2024-01-15T11:27:49;4.70;;;1.33;;
4424;SDS011;2225;53.568;13.266;2024-01-15T11:30:19;6.27;;;1.10;;
4424;SDS011;2225;53.568;13.266;2024-01-15T11:32:46;4.27;;;1.10;;
4424;SDS011;2225;53.568;13.266;2024-01-15T11:35:14;7.97;;;1.17;;
4424;SDS011;2225;53.568;13.266;2024-01-15T11:40:18;6.87;;;1.20;;
4424;SDS011;2225;53.568;13.266;2024-01-15T11:43:05;6.57;;;1.33;;
4424;SDS011;2225;53.568;13.266;2024-01-15T11:45:33;6.40;;;1.27;;
4424;SDS011;2225;53.568;13.266;2024-01-15T11:48:13;9.07;;;1.30;;
4424;SDS011;2225;53.568;13.266;2024-01-15T11:50:44;9.23;;;1.20;;
4424;SDS011;2225;53.568;13.266;2024-01-15T11:53:17;6.57;;;1.37;;
4424;SDS011;2225;53.568;13.266;2024-01-15T11:56:01;2.37;;;1.00;;
4424;SDS011;2225;53.568;13.266;2024-01-15T11:58:30;4.20;;;1.03;;
4424;SDS011;2225;53.568;13.266;2024-01-15T12:00:57;5.73;;;1.10;;
4424;SDS011;2225;53.568;13.266;2024-01-15T12:03:24;6.90;;;1.80;;
4424;SDS011;2225;53.568;13.266;2024-01-15T12:05:52;2.63;;;0.90;;
4424;SDS011;2225;53.568;13.266;2024-01-15T12:08:22;8.00;;;1.43;;
4424;SDS011;2225;53.568;13.266;2024-01-15T12:10:50;4.80;;;1.10;;
4424;SDS011;2225;53.568;13.266;2024-01-15T12:13:17;5.10;;;0.90;;
4424;SDS011;2225;53.568;13.266;2024-01-15T12:15:45;4.13;;;1.87;;
4424;SDS011;2225;53.568;13.266;2024-01-15T12:18:14;6.70;;;1.37;;
4424;SDS011;2225;53.568;13.266;2024-01-15T12:20:45;5.80;;;1.40;;
4424;SDS011;2225;53.568;13.266;2024-01-15T12:23:16;10.33;;;1.50;;
4424;SDS011;2225;53.568;13.266;2024-01-15T12:25:44;4.70;;;1.10;;
4424;SDS011;2225;53.568;13.266;2024-01-15T12:28:13;3.40;;;1.20;;
4424;SDS011;2225;53.568;13.266;2024-01-15T12:30:41;5.53;;;1.27;;
4424;SDS011;2225;53.568;13.266;2024-01-15T12:33:09;2.30;;;0.87;;
4424;SDS011;2225;53.568;13.266;2024-01-15T12:35:36;3.70;;;1.03;;
4424;SDS011;2225;53.568;13.266;2024-01-15T12:38:03;4.13;;;1.20;;
4424;SDS011;2225;53.568;13.266;2024-01-15T12:40:32;5.60;;;1.07;;
4424;SDS011;2225;53.568;13.266;2024-01-15T12:43:01;6.53;;;1.70;;
4424;SDS011;2225;53.568;13.266;2024-01-15T12:45:29;4.70;;;1.30;;
4424;SDS011;2225;53.568;13.266;2024-01-15T12:47:56;2.50;;;0.90;;
4424;SDS011;2225;53.568;13.266;2024-01-15T12:50:24;7.27;;;1.10;;
4424;SDS011;2225;53.568;13.266;2024-01-15T12:52:52;2.00;;;0.70;;
4424;SDS011;2225;53.568;13.266;2024-01-15T12:55:19;3.13;;;0.97;;
4424;SDS011;2225;53.568;13.266;2024-01-15T12:57:46;2.90;;;0.93;;
4424;SDS011;2225;53.568;13.266;2024-01-15T13:00:13;3.10;;;0.97;;
4424;SDS011;2225;53.568;13.266;2024-01-15T13:02:42;6.83;;;1.07;;
4424;SDS011;2225;53.568;13.266;2024-01-15T13:05:10;4.20;;;1.00;;
4424;SDS011;2225;53.568;13.266;2024-01-15T13:07:39;3.83;;;0.80;;
4424;SDS011;2225;53.568;13.266;2024-01-15T13:10:06;2.93;;;0.80;;
4424;SDS011;2225;53.568;13.266;2024-01-15T13:12:35;3.97;;;1.10;;
4424;SDS011;2225;53.568;13.266;2024-01-15T13:15:03;3.20;;;0.67;;
4424;SDS011;2225;53.568;13.266;2024-01-15T13:17:30;6.70;;;1.07;;
4424;SDS011;2225;53.568;13.266;2024-01-15T13:19:57;10.00;;;1.10;;
4424;SDS011;2225;53.568;13.266;2024-01-15T13:22:25;6.13;;;1.73;;
4424;SDS011;2225;53.568;13.266;2024-01-15T13:24:59;3.53;;;1.00;;
4424;SDS011;2225;53.568;13.266;2024-01-15T13:27:26;3.13;;;0.90;;
4424;SDS011;2225;53.568;13.266;2024-01-15T13:29:55;3.43;;;1.10;;
4424;SDS011;2225;53.568;13.266;2024-01-15T13:32:25;2.87;;;1.10;;
4424;SDS011;2225;53.568;13.266;2024-01-15T13:34:56;2.80;;;0.93;;
4424;SDS011;2225;53.568;13.266;2024-01-15T13:37:23;3.00;;;1.00;;
4424;SDS011;2225;53.568;13.266;2024-01-15T13:39:51;2.83;;;1.03;;
4424;SDS011;2225;53.568;13.266;2024-01-15T13:42:19;3.70;;;0.87;;
4424;SDS011;2225;53.568;13.266;2024-01-15T13:44:50;4.57;;;0.90;;
4424;SDS011;2225;53.568;13.266;2024-01-15T13:47:17;5.73;;;1.17;;
4424;SDS011;2225;53.568;13.266;2024-01-15T13:49:44;4.17;;;1.23;;
4424;SDS011;2225;53.568;13.266;2024-01-15T13:52:12;6.60;;;0.90;;
4424;SDS011;2225;53.568;13.266;2024-01-15T13:54:39;6.30;;;2.07;;
4424;SDS011;2225;53.568;13.266;2024-01-15T13:57:16;9.13;;;1.40;;
4424;SDS011;2225;53.568;13.266;2024-01-15T13:59:44;6.73;;;1.50;;
4424;SDS011;2225;53.568;13.266;2024-01-15T14:02:12;4.10;;;1.30;;
4424;SDS011;2225;53.568;13.266;2024-01-15T14:04:45;3.73;;;1.00;;
4424;SDS011;2225;53.568;13.266;2024-01-15T14:07:13;3.30;;;0.70;;
4424;SDS011;2225;53.568;13.266;2024-01-15T14:09:40;4.20;;;1.20;;
4424;SDS011;2225;53.568;13.266;2024-01-15T14:12:07;6.27;;;1.70;;
4424;SDS011;2225;53.568;13.266;2024-01-15T14:14:34;6.70;;;1.40;;
4424;SDS011;2225;53.568;13.266;2024-01-15T14:17:01;3.40;;;1.00;;
4424;SDS011;2225;53.568;13.266;2024-01-15T14:19:28;5.40;;;0.97;;
4424;SDS011;2225;53.568;13.266;2024-01-15T14:21:55;6.13;;;0.83;;
4424;SDS011;2225;53.568;13.266;2024-01-15T14:24:22;3.27;;;1.27;;
4424;SDS011;2225;53.568;13.266;2024-01-15T14:26:49;4.47;;;1.00;;
4424;SDS011;2225;53.568;13.266;2024-01-15T14:29:16;8.53;;;1.07;;
4424;SDS011;2225;53.568;13.266;2024-01-15T14:31:46;2.27;;;0.77;;
4424;SDS011;2225;53.568;13.266;2024-01-15T14:34:14;7.30;;;1.13;;
4424;SDS011;2225;53.568;13.266;2024-01-15T14:36:42;3.63;;;0.90;;
4424;SDS011;2225;53.568;13.266;2024-01-15T14:39:09;2.67;;;0.77;;
4424;SDS011;2225;53.568;13.266;2024-01-15T14:41:36;3.20;;;0.83;;
4424;SDS011;2225;53.568;13.266;2024-01-15T14:44:03;5.03;;;1.13;;
4424;SDS011;2225;53.568;13.266;2024-01-15T14:46:30;4.67;;;0.83;;
4424;SDS011;2225;53.568;13.266;2024-01-15T14:48:57;2.40;;;0.83;;
4424;SDS011;2225;53.568;13.266;2024-01-15T14:51:25;2.60;;;0.90;;
4424;SDS011;2225;53.568;13.266;2024-01-15T14:53:52;1.70;;;0.70;;
4424;SDS011;2225;53.568;13.266;2024-01-15T14:56:19;6.00;;;1.37;;
4424;SDS011;2225;53.568;13.266;2024-01-15T14:58:47;9.23;;;1.07;;
4424;SDS011;2225;53.568;13.266;2024-01-15T15:01:14;2.20;;;1.03;;
4424;SDS011;2225;53.568;13.266;2024-01-15T15:03:41;3.87;;;1.20;;
4424;SDS011;2225;53.568;13.266;2024-01-15T15:06:10;3.47;;;1.23;;